createdAt,value
2019-05-03T00:00:34.947Z,10.15
2019-05-03T00:03:07.534Z,10.20
2019-05-03T00:05:41.803Z,9.97
2019-05-03T00:08:12.649Z,10.12
2019-05-03T00:10:42.690Z,10.22
2019-05-03T00:13:12.712Z,10.24
2019-05-03T00:15:52.078Z,9.89
2019-05-03T00:18:22.158Z,10.07
2019-05-03T00:20:52.685Z,10.11
2019-05-03T00:23:22.961Z,10.07
2019-05-03T00:25:52.797Z,10.02
2019-05-03T00:28:22.466Z,10.14
2019-05-03T00:30:52.139Z,10.11
2019-05-03T00:33:23.444Z,9.99
2019-05-03T00:36:12.725Z,9.88
2019-05-03T00:38:42.446Z,9.91
2019-05-03T00:41:13.551Z,9.92
2019-05-03T00:43:43.353Z,9.96
2019-05-03T00:46:13.193Z,10.00
2019-05-03T00:48:43.092Z,9.96
2019-05-03T00:51:13.123Z,9.97
2019-05-03T00:53:44.275Z,9.76
2019-05-03T00:56:13.893Z,9.75
2019-05-03T00:58:52.804Z,9.69
2019-05-03T01:01:22.583Z,9.53
2019-05-03T01:03:52.820Z,9.34
2019-05-03T01:06:23.012Z,9.65
2019-05-03T01:08:52.745Z,9.64
2019-05-03T01:11:22.606Z,9.54
2019-05-03T01:13:53.223Z,9.48
2019-05-03T01:16:24.495Z,9.38
2019-05-03T01:18:54.122Z,9.30
2019-05-03T01:21:23.767Z,9.48
2019-05-03T01:23:53.422Z,9.44
2019-05-03T01:26:23.244Z,9.45
2019-05-03T01:28:52.966Z,9.41
2019-05-03T01:31:23.008Z,9.41
2019-05-03T01:33:53.231Z,9.25
2019-05-03T01:36:23.816Z,9.05
2019-05-03T01:38:53.446Z,9.13
2019-05-03T01:41:23.454Z,9.13
2019-05-03T01:43:53.209Z,9.32
2019-05-03T01:46:23.139Z,9.34
2019-05-03T01:48:54.545Z,9.12
2019-05-03T01:51:26.032Z,8.88
2019-05-03T01:53:55.705Z,8.98
2019-05-03T01:56:26.142Z,8.99
2019-05-03T01:58:55.822Z,8.92
2019-05-03T02:01:39.091Z,8.95
2019-05-03T02:04:19.208Z,9.00
2019-05-03T02:06:48.951Z,8.98
2019-05-03T02:09:18.633Z,8.77
2019-05-03T02:11:48.946Z,8.76
2019-05-03T02:14:18.497Z,8.63
2019-05-03T02:16:48.115Z,8.70
2019-05-03T02:19:17.909Z,8.67
2019-05-03T02:21:47.559Z,8.54
2019-05-03T02:24:17.104Z,8.52
2019-05-03T02:26:46.777Z,8.44
2019-05-03T02:29:16.509Z,8.47
2019-05-03T02:31:46.069Z,8.53
2019-05-03T02:34:16.484Z,8.47
2019-05-03T02:36:46.284Z,8.41
2019-05-03T02:39:17.459Z,8.06
2019-05-03T02:41:51.429Z,8.04
2019-05-03T02:44:21.291Z,8.09
2019-05-03T02:46:56.287Z,8.05
2019-05-03T02:49:30.653Z,7.77
2019-05-03T02:52:02.263Z,7.72
2019-05-03T02:54:31.843Z,7.92
2019-05-03T02:57:01.541Z,7.93
2019-05-03T02:59:31.253Z,7.73
2019-05-03T03:02:01.230Z,7.69
2019-05-03T03:04:31.083Z,7.69
2019-05-03T03:07:01.625Z,7.74
2019-05-03T03:09:31.492Z,7.52
2019-05-03T03:12:02.185Z,7.33
2019-05-03T03:14:36.254Z,7.37
2019-05-03T03:17:07.715Z,7.37
2019-05-03T03:19:38.604Z,7.38
2019-05-03T03:22:11.546Z,7.34
2019-05-03T03:24:45.812Z,7.40
2019-05-03T03:27:25.528Z,7.53
2019-05-03T03:29:58.904Z,7.63
2019-05-03T03:32:38.375Z,7.57
2019-05-03T03:35:20.828Z,7.62
2019-05-03T03:37:48.807Z,7.61
2019-05-03T03:40:18.973Z,7.70
2019-05-03T03:42:51.528Z,7.93
2019-05-03T03:45:21.226Z,7.85
2019-05-03T03:47:56.203Z,7.88
2019-05-03T03:50:28.943Z,7.70
2019-05-03T03:53:01.058Z,7.62
2019-05-03T03:55:32.861Z,7.76
2019-05-03T03:58:06.197Z,8.09
2019-05-03T04:00:36.273Z,8.14
2019-05-03T04:03:06.149Z,8.03
2019-05-03T04:05:37.512Z,8.15
2019-05-03T04:08:07.243Z,8.02
2019-05-03T04:10:37.119Z,8.12
2019-05-03T04:13:09.486Z,7.88
2019-05-03T04:15:45.268Z,8.15
2019-05-03T04:18:22.363Z,8.17
2019-05-03T04:20:52.142Z,8.34
2019-05-03T04:23:21.773Z,8.28
2019-05-03T04:25:52.115Z,8.02
2019-05-03T04:28:21.985Z,8.06
2019-05-03T04:30:51.527Z,7.92
2019-05-03T04:33:21.222Z,8.16
2019-05-03T04:35:50.783Z,8.25
2019-05-03T04:38:20.447Z,8.41
2019-05-03T04:40:50.154Z,8.45
2019-05-03T04:43:19.839Z,8.09
2019-05-03T04:46:06.665Z,7.98
2019-05-03T04:48:35.746Z,7.99
2019-05-03T04:51:06.561Z,8.13
2019-05-03T04:53:37.800Z,8.42
2019-05-03T04:56:07.412Z,8.41
2019-05-03T04:58:37.030Z,8.54
2019-05-03T05:01:07.670Z,8.32
2019-05-03T05:03:37.242Z,8.30
2019-05-03T05:06:07.012Z,8.33
2019-05-03T05:08:36.630Z,8.40
2019-05-03T05:11:10.080Z,8.40
2019-05-03T05:13:37.678Z,8.76
2019-05-03T05:16:07.472Z,8.73
2019-05-03T05:18:38.831Z,8.70
2019-05-03T05:21:15.949Z,8.91
2019-05-03T05:23:59.023Z,9.17
2019-05-03T05:26:30.540Z,9.24
2019-05-03T05:29:01.913Z,9.41
2019-05-03T05:31:31.619Z,9.64
2019-05-03T05:34:01.340Z,9.66
2019-05-03T05:36:34.745Z,9.69
2019-05-03T05:39:06.905Z,9.82
2019-05-03T05:41:36.559Z,9.66
2019-05-03T05:44:06.233Z,9.95
2019-05-03T05:46:39.617Z,9.88
2019-05-03T05:49:10.864Z,10.09
2019-05-03T05:51:40.915Z,10.20
2019-05-03T05:54:11.794Z,10.27
2019-05-03T05:56:44.493Z,10.17
2019-05-03T05:59:19.007Z,10.31
2019-05-03T06:01:50.288Z,10.09
2019-05-03T06:04:19.966Z,9.98
2019-05-03T06:06:51.321Z,10.37
2019-05-03T06:09:31.070Z,10.78
2019-05-03T06:12:04.439Z,10.80
2019-05-03T06:14:35.942Z,11.03
2019-05-03T06:17:24.527Z,10.70
2019-05-03T06:19:56.111Z,10.81
2019-05-03T06:22:34.560Z,10.93
2019-05-03T06:25:08.105Z,11.04
2019-05-03T06:27:40.769Z,11.15
2019-05-03T06:30:16.217Z,11.29
2019-05-03T06:32:45.784Z,10.77
2019-05-03T06:35:15.491Z,11.04
2019-05-03T06:37:46.387Z,11.04
2019-05-03T06:40:16.176Z,11.05
2019-05-03T06:42:54.529Z,11.41
2019-05-03T06:45:18.815Z,11.07
2019-05-03T06:47:50.124Z,11.18
2019-05-03T06:50:25.216Z,11.22
2019-05-03T06:52:51.185Z,11.31
2019-05-03T06:55:20.821Z,11.79
2019-05-03T06:57:51.690Z,12.14
2019-05-03T07:00:29.481Z,12.33
2019-05-03T07:03:00.687Z,12.45
2019-05-03T07:05:32.758Z,12.82
2019-05-03T07:08:19.683Z,13.03
2019-05-03T07:10:51.112Z,12.63
2019-05-03T07:13:20.775Z,12.80
2019-05-03T07:15:50.837Z,13.30
2019-05-03T07:18:20.356Z,13.71
2019-05-03T07:20:54.366Z,13.94
2019-05-03T07:23:24.474Z,13.58
2019-05-03T07:25:55.159Z,13.13
2019-05-03T07:28:25.587Z,13.40
2019-05-03T07:30:56.474Z,13.55
2019-05-03T07:33:30.193Z,13.62
2019-05-03T07:35:59.996Z,13.43
2019-05-03T07:38:29.550Z,13.16
2019-05-03T07:40:59.200Z,13.32
2019-05-03T07:43:28.745Z,13.81
2019-05-03T07:46:01.259Z,13.76
2019-05-03T07:48:31.297Z,14.10
2019-05-03T07:51:00.807Z,13.73
2019-05-03T07:53:30.406Z,13.94
2019-05-03T07:56:01.571Z,13.95
2019-05-03T07:58:38.723Z,13.86
2019-05-03T08:01:18.788Z,13.88
2019-05-03T08:03:48.442Z,13.56
2019-05-03T08:06:18.429Z,14.50
2019-05-03T08:08:48.025Z,15.21
2019-05-03T08:11:17.703Z,15.27
2019-05-03T08:13:47.337Z,15.12
2019-05-03T08:16:16.921Z,15.28
2019-05-03T08:18:46.534Z,15.11
2019-05-03T08:21:16.134Z,15.28
2019-05-03T08:23:45.824Z,15.04
2019-05-03T08:26:15.749Z,14.99
2019-05-03T08:28:45.390Z,15.23
2019-05-03T08:31:32.723Z,15.33
2019-05-03T08:34:04.804Z,15.85
2019-05-03T08:36:36.481Z,16.15
2019-05-03T08:39:07.385Z,16.40
2019-05-03T08:41:38.621Z,15.80
2019-05-03T08:44:08.317Z,15.76
2019-05-03T08:46:38.045Z,15.88
2019-05-03T08:49:07.611Z,15.83
2019-05-03T08:51:37.210Z,15.30
2019-05-03T08:54:06.755Z,14.85
2019-05-03T08:56:36.276Z,14.53
2019-05-03T08:59:05.787Z,14.23
2019-05-03T09:01:37.828Z,13.99
2019-05-03T09:04:06.732Z,13.18
2019-05-03T09:06:36.315Z,13.17
2019-05-03T09:09:09.426Z,13.25
2019-05-03T09:11:38.952Z,13.03
2019-05-03T09:14:12.647Z,12.64
2019-05-03T09:16:42.224Z,12.85
2019-05-03T09:19:11.771Z,13.18
2019-05-03T09:21:41.358Z,13.34
2019-05-03T09:24:11.600Z,13.80
2019-05-03T09:26:41.196Z,14.53
2019-05-03T09:29:10.720Z,14.90
2019-05-03T09:31:40.422Z,15.62
2019-05-03T09:34:11.176Z,16.11
2019-05-03T09:36:40.803Z,16.58
2019-05-03T09:39:10.601Z,16.72
2019-05-03T09:41:40.266Z,17.10
2019-05-03T09:44:09.859Z,17.10
2019-05-03T09:46:39.674Z,17.18
2019-05-03T09:49:13.356Z,17.50
2019-05-03T09:51:40.623Z,17.85
2019-05-03T09:54:11.982Z,17.21
2019-05-03T09:57:00.232Z,16.52
2019-05-03T09:59:30.941Z,15.58
2019-05-03T10:02:04.624Z,14.88
2019-05-03T10:04:36.386Z,14.12
2019-05-03T10:07:05.422Z,14.28
2019-05-03T10:09:35.462Z,14.50
2019-05-03T10:12:06.843Z,15.07
2019-05-03T10:14:36.458Z,14.81
2019-05-03T10:17:15.932Z,14.50
2019-05-03T10:19:45.767Z,13.72
2019-05-03T10:22:15.755Z,13.50
2019-05-03T10:24:45.609Z,12.83
2019-05-03T10:27:15.773Z,12.96
2019-05-03T10:29:45.271Z,13.32
2019-05-03T10:32:26.949Z,13.60
2019-05-03T10:34:58.095Z,13.94
2019-05-03T10:37:31.729Z,14.66
2019-05-03T10:40:07.791Z,15.17
2019-05-03T10:42:35.843Z,15.97
2019-05-03T10:45:07.046Z,16.39
2019-05-03T10:47:36.841Z,16.87
2019-05-03T10:50:08.458Z,17.64
2019-05-03T10:52:44.201Z,18.15
2019-05-03T10:55:15.736Z,18.29
2019-05-03T10:57:46.597Z,18.41
2019-05-03T11:00:42.482Z,18.59
2019-05-03T11:02:57.575Z,18.53
2019-05-03T11:05:27.372Z,18.91
2019-05-03T11:07:56.968Z,18.97
2019-05-03T11:10:26.487Z,19.60
2019-05-03T11:12:56.428Z,19.49
2019-05-03T11:15:26.216Z,18.28
2019-05-03T11:17:55.746Z,16.95
2019-05-03T11:20:37.468Z,16.64
2019-05-03T11:23:09.283Z,16.48
2019-05-03T11:25:38.915Z,16.97
2019-05-03T11:28:10.225Z,17.13
2019-05-03T11:30:52.276Z,17.23
2019-05-03T11:33:27.526Z,17.24
2019-05-03T11:36:07.307Z,17.73
2019-05-03T11:38:39.163Z,18.31
2019-05-03T11:41:08.807Z,17.36
2019-05-03T11:43:38.662Z,17.30
2019-05-03T11:46:08.220Z,16.97
2019-05-03T11:48:38.662Z,17.07
2019-05-03T11:51:08.386Z,16.79
2019-05-03T11:53:37.932Z,16.84
2019-05-03T11:56:07.553Z,17.46
2019-05-03T11:58:37.044Z,17.87
2019-05-03T12:01:15.913Z,18.53
2019-05-03T12:03:41.490Z,19.10
2019-05-03T12:06:11.161Z,18.83
2019-05-03T12:08:40.940Z,18.33
2019-05-03T12:11:10.521Z,17.92
2019-05-03T12:13:41.211Z,17.08
2019-05-03T12:16:15.851Z,16.29
2019-05-03T12:18:52.238Z,15.66
2019-05-03T12:21:17.210Z,15.16
2019-05-03T12:23:45.953Z,15.37
2019-05-03T12:26:17.344Z,15.78
2019-05-03T12:28:48.861Z,15.38
2019-05-03T12:31:33.518Z,16.28
2019-05-03T12:33:51.764Z,16.86
2019-05-03T12:36:21.335Z,17.08
2019-05-03T12:38:50.906Z,17.44
2019-05-03T12:41:20.469Z,17.42
2019-05-03T12:43:50.353Z,17.38
2019-05-03T12:46:21.224Z,16.68
2019-05-03T12:48:51.403Z,15.81
2019-05-03T12:51:21.022Z,15.45
2019-05-03T12:53:50.692Z,15.35
2019-05-03T12:56:23.399Z,15.42
2019-05-03T12:59:05.938Z,15.81
2019-05-03T13:01:49.020Z,16.21
2019-05-03T13:04:35.602Z,16.46
2019-05-03T13:07:09.741Z,17.04
2019-05-03T13:09:39.263Z,16.84
2019-05-03T13:12:10.956Z,17.31
2019-05-03T13:14:40.531Z,17.71
2019-05-03T13:17:11.376Z,17.62
2019-05-03T13:19:45.052Z,17.56
2019-05-03T13:22:14.575Z,17.43
2019-05-03T13:24:45.202Z,17.17
2019-05-03T13:27:15.259Z,16.44
2019-05-03T13:29:45.320Z,17.01
2019-05-03T13:32:15.163Z,17.57
2019-05-03T13:34:44.868Z,17.99
2019-05-03T13:37:35.788Z,18.28
2019-05-03T13:40:07.992Z,18.34
2019-05-03T13:42:37.958Z,18.43
2019-05-03T13:45:08.624Z,18.11
2019-05-03T13:47:38.159Z,17.53
2019-05-03T13:50:08.360Z,16.93
2019-05-03T13:52:37.879Z,16.71
2019-05-03T13:55:09.123Z,16.49
2019-05-03T13:57:38.747Z,16.22
2019-05-03T14:00:08.495Z,16.53
2019-05-03T14:02:38.123Z,16.47
2019-05-03T14:05:08.528Z,16.02
2019-05-03T14:07:38.178Z,16.21
2019-05-03T14:10:08.375Z,16.64
2019-05-03T14:12:37.881Z,16.77
2019-05-03T14:15:08.809Z,16.37
2019-05-03T14:17:38.531Z,16.38
2019-05-03T14:20:11.401Z,16.42
2019-05-03T14:22:42.548Z,16.29
2019-05-03T14:25:12.178Z,16.26
2019-05-03T14:27:41.726Z,16.09
2019-05-03T14:30:14.522Z,16.02
2019-05-03T14:32:45.419Z,16.06
2019-05-03T14:35:16.305Z,15.91
2019-05-03T14:37:46.107Z,15.75
2019-05-03T14:40:16.777Z,15.95
2019-05-03T14:42:46.339Z,15.69
2019-05-03T14:45:16.009Z,15.70
2019-05-03T14:47:48.920Z,15.70
2019-05-03T14:50:18.733Z,15.83
2019-05-03T14:52:48.332Z,15.77
2019-05-03T14:55:34.700Z,15.59
2019-05-03T14:58:04.602Z,15.67
2019-05-03T15:00:54.546Z,15.46
2019-05-03T15:03:29.163Z,15.83
2019-05-03T15:06:00.654Z,16.31
2019-05-03T15:08:30.150Z,16.63
2019-05-03T15:10:59.698Z,16.29
2019-05-03T15:13:29.343Z,16.13
2019-05-03T15:15:59.023Z,16.06
2019-05-03T15:18:29.725Z,16.30
2019-05-03T15:20:59.268Z,15.82
2019-05-03T15:23:28.891Z,15.43
2019-05-03T15:25:58.464Z,15.00
2019-05-03T15:28:28.104Z,15.17
2019-05-03T15:30:57.772Z,15.23
2019-05-03T15:33:27.343Z,15.17
2019-05-03T15:35:56.955Z,14.85
2019-05-03T15:38:26.488Z,15.18
2019-05-03T15:40:56.002Z,15.43
2019-05-03T15:43:38.949Z,15.05
2019-05-03T15:46:10.101Z,14.79
2019-05-03T15:48:41.315Z,15.06
2019-05-03T15:51:11.011Z,15.31
2019-05-03T15:53:40.601Z,14.86
2019-05-03T15:56:10.268Z,14.63
2019-05-03T15:58:40.074Z,14.77
2019-05-03T16:01:09.943Z,14.70
2019-05-03T16:03:39.997Z,14.43
2019-05-03T16:06:11.469Z,14.23
2019-05-03T16:08:41.094Z,13.97
2019-05-03T16:11:10.637Z,13.90
2019-05-03T16:13:40.609Z,14.30
2019-05-03T16:16:11.873Z,14.40
2019-05-03T16:18:41.574Z,14.57
2019-05-03T16:21:14.687Z,14.50
2019-05-03T16:23:46.619Z,14.60
2019-05-03T16:26:16.013Z,14.29
2019-05-03T16:29:05.277Z,14.38
2019-05-03T16:31:35.177Z,14.09
2019-05-03T16:34:05.001Z,14.30
2019-05-03T16:36:36.877Z,14.38
2019-05-03T16:39:08.337Z,14.34
2019-05-03T16:41:38.471Z,14.37
2019-05-03T16:44:07.999Z,14.30
2019-05-03T16:46:37.670Z,13.90
2019-05-03T16:49:07.347Z,13.94
2019-05-03T16:51:37.136Z,13.71
2019-05-03T16:54:06.992Z,13.92
2019-05-03T16:56:36.690Z,13.89
2019-05-03T16:59:17.507Z,13.81
2019-05-03T17:01:47.474Z,13.72
2019-05-03T17:04:30.163Z,13.35
2019-05-03T17:07:12.039Z,13.34
2019-05-03T17:09:43.704Z,13.28
2019-05-03T17:12:25.530Z,13.42
2019-05-03T17:14:57.133Z,13.51
2019-05-03T17:17:26.875Z,13.51
2019-05-03T17:19:56.775Z,13.17
2019-05-03T17:22:28.613Z,12.96
2019-05-03T17:24:58.444Z,12.88
2019-05-03T17:27:28.753Z,12.92
2019-05-03T17:29:58.482Z,12.86
2019-05-03T17:32:28.154Z,12.77
2019-05-03T17:34:57.999Z,12.80
2019-05-03T17:37:28.009Z,12.85
2019-05-03T17:40:05.496Z,12.56
2019-05-03T17:42:54.716Z,12.76
2019-05-03T17:45:26.696Z,12.95
2019-05-03T17:47:56.575Z,12.50
2019-05-03T17:50:26.162Z,12.74
2019-05-03T17:53:00.869Z,12.67
2019-05-03T17:55:35.280Z,12.47
2019-05-03T17:58:15.113Z,12.31
2019-05-03T18:00:44.895Z,12.34
2019-05-03T18:03:16.100Z,12.52
2019-05-03T18:05:48.110Z,12.50
2019-05-03T18:08:28.335Z,12.49
2019-05-03T18:10:59.722Z,12.58
2019-05-03T18:13:29.395Z,12.59
2019-05-03T18:15:58.935Z,12.49
2019-05-03T18:18:29.077Z,12.03
2019-05-03T18:20:58.958Z,11.94
2019-05-03T18:23:29.520Z,12.09
2019-05-03T18:25:59.863Z,12.10
2019-05-03T18:28:29.835Z,12.16
2019-05-03T18:30:59.727Z,12.21
2019-05-03T18:33:29.775Z,11.91
2019-05-03T18:35:59.685Z,11.76
2019-05-03T18:38:30.978Z,11.84
2019-05-03T18:41:04.542Z,11.93
2019-05-03T18:43:35.444Z,12.00
2019-05-03T18:46:14.210Z,11.86
2019-05-03T18:48:44.579Z,11.90
2019-05-03T18:51:14.816Z,11.81
2019-05-03T18:53:45.123Z,11.95
2019-05-03T18:56:14.935Z,11.87
2019-05-03T18:58:44.959Z,11.88
2019-05-03T19:01:18.609Z,12.07
2019-05-03T19:03:49.896Z,12.05
2019-05-03T19:06:19.544Z,12.07
2019-05-03T19:09:00.989Z,12.00
2019-05-03T19:11:48.091Z,12.11
2019-05-03T19:14:19.366Z,11.89
2019-05-03T19:16:59.115Z,11.38
2019-05-03T19:19:31.070Z,11.05
2019-05-03T19:22:00.981Z,10.74
2019-05-03T19:24:31.378Z,11.02
2019-05-03T19:27:00.938Z,11.05
2019-05-03T19:29:30.515Z,11.14
2019-05-03T19:32:00.078Z,10.74
2019-05-03T19:34:29.635Z,10.90
2019-05-03T19:36:59.283Z,10.91
2019-05-03T19:39:28.828Z,10.75
2019-05-03T19:41:58.604Z,10.78
2019-05-03T19:44:28.162Z,10.97
2019-05-03T19:46:57.859Z,10.73
2019-05-03T19:49:27.440Z,10.75
2019-05-03T19:51:57.065Z,10.66
2019-05-03T19:54:26.943Z,10.18
2019-05-03T19:56:56.542Z,10.18
2019-05-03T19:59:43.592Z,10.26
2019-05-03T20:02:15.050Z,10.56
2019-05-03T20:05:00.625Z,10.63
2019-05-03T20:07:31.058Z,10.63
2019-05-03T20:10:00.737Z,10.38
2019-05-03T20:12:30.493Z,10.44
2019-05-03T20:15:00.173Z,10.25
2019-05-03T20:17:29.714Z,10.08
2019-05-03T20:19:59.506Z,9.97
2019-05-03T20:22:29.161Z,10.00
2019-05-03T20:24:58.677Z,9.87
2019-05-03T20:27:28.405Z,10.02
2019-05-03T20:29:58.078Z,9.97
2019-05-03T20:32:28.245Z,10.13
2019-05-03T20:35:10.551Z,10.12
2019-05-03T20:37:29.178Z,9.98
2019-05-03T20:39:59.117Z,9.81
2019-05-03T20:42:48.973Z,9.61
2019-05-03T20:45:35.422Z,9.29
2019-05-03T20:48:07.082Z,9.45
2019-05-03T20:50:36.728Z,9.41
2019-05-03T20:53:06.547Z,9.51
2019-05-03T20:55:36.162Z,9.58
2019-05-03T20:58:08.339Z,9.76
2019-05-03T21:00:37.217Z,9.57
2019-05-03T21:03:07.655Z,9.08
2019-05-03T21:05:37.653Z,9.16
2019-05-03T21:08:07.481Z,9.23
2019-05-03T21:10:37.181Z,9.11
2019-05-03T21:13:08.758Z,9.04
2019-05-03T21:15:45.328Z,9.09
2019-05-03T21:18:16.695Z,9.26
2019-05-03T21:21:00.794Z,9.19
2019-05-03T21:23:45.099Z,9.22
2019-05-03T21:26:16.619Z,9.14
2019-05-03T21:28:48.733Z,9.20
2019-05-03T21:31:18.296Z,9.45
2019-05-03T21:33:48.246Z,9.12
2019-05-03T21:36:18.176Z,9.26
2019-05-03T21:38:48.089Z,9.18
2019-05-03T21:41:24.585Z,9.27
2019-05-03T21:43:54.473Z,9.30
2019-05-03T21:46:26.188Z,9.16
2019-05-03T21:49:00.277Z,9.20
2019-05-03T21:51:29.931Z,9.04
2019-05-03T21:53:59.444Z,9.11
2019-05-03T21:56:29.297Z,9.04
2019-05-03T21:58:58.872Z,9.18
2019-05-03T22:01:28.505Z,8.92
2019-05-03T22:03:58.034Z,8.94
2019-05-03T22:06:28.115Z,8.92
2019-05-03T22:08:58.381Z,8.53
2019-05-03T22:11:28.477Z,8.62
2019-05-03T22:14:01.662Z,8.79
2019-05-03T22:16:35.979Z,8.74
2019-05-03T22:19:05.698Z,8.73
2019-05-03T22:21:39.589Z,8.65
2019-05-03T22:24:27.021Z,8.54
2019-05-03T22:26:58.219Z,8.66
2019-05-03T22:29:29.041Z,8.40
2019-05-03T22:32:00.587Z,8.22
2019-05-03T22:34:30.175Z,8.25
2019-05-03T22:36:59.685Z,8.53
2019-05-03T22:39:29.289Z,8.25
2019-05-03T22:41:58.787Z,8.02
2019-05-03T22:44:28.290Z,8.13
2019-05-03T22:46:57.960Z,8.08
2019-05-03T22:49:27.614Z,7.84
2019-05-03T22:51:57.240Z,7.96
2019-05-03T22:54:27.850Z,8.08
2019-05-03T22:56:57.576Z,7.98
2019-05-03T22:59:28.211Z,8.04
2019-05-03T23:01:57.797Z,8.03
2019-05-03T23:04:27.894Z,8.01
2019-05-03T23:06:57.443Z,7.95
2019-05-03T23:09:27.145Z,7.85
2019-05-03T23:11:56.655Z,7.84
2019-05-03T23:14:26.264Z,7.63
2019-05-03T23:16:56.483Z,7.58
2019-05-03T23:19:25.982Z,7.30
2019-05-03T23:22:04.839Z,7.30
2019-05-03T23:24:35.245Z,7.51
2019-05-03T23:27:05.313Z,7.59
2019-05-03T23:29:35.090Z,7.53
2019-05-03T23:32:05.753Z,7.25
2019-05-03T23:34:35.358Z,7.16
2019-05-03T23:37:05.636Z,7.34
2019-05-03T23:39:35.521Z,7.59
2019-05-03T23:42:06.083Z,7.57
2019-05-03T23:44:35.708Z,7.36
2019-05-03T23:47:14.580Z,7.48
2019-05-03T23:49:44.644Z,7.44
2019-05-03T23:52:26.546Z,7.54
2019-05-03T23:55:02.920Z,7.62
2019-05-03T23:57:32.512Z,7.48
